sensor_id;sensor_type;location;lat;lon;timestamp;P1;durP1;ratioP1;P2;durP2;ratioP2
20101;SDS011;10210;52.284;9.892;2023-07-31T00:01:07;6.17;;;1.60;;
20101;SDS011;10210;52.284;9.892;2023-07-31T00:03:33;5.10;;;1.60;;
20101;SDS011;10210;52.284;9.892;2023-07-31T00:05:58;6.17;;;1.80;;
20101;SDS011;10210;52.284;9.892;2023-07-31T00:08:24;4.60;;;1.60;;
20101;SDS011;10210;52.284;9.892;2023-07-31T00:10:53;4.27;;;1.50;;
20101;SDS011;10210;52.284;9.892;2023-07-31T00:13:19;3.57;;;1.57;;
20101;SDS011;10210;52.284;9.892;2023-07-31T00:15:44;3.73;;;1.30;;
20101;SDS011;10210;52.284;9.892;2023-07-31T00:18:10;3.33;;;1.40;;
20101;SDS011;10210;52.284;9.892;2023-07-31T00:20:36;9.30;;;2.00;;
20101;SDS011;10210;52.284;9.892;2023-07-31T00:23:01;3.13;;;1.37;;
20101;SDS011;10210;52.284;9.892;2023-07-31T00:25:27;5.10;;;1.50;;
20101;SDS011;10210;52.284;9.892;2023-07-31T00:27:52;3.77;;;1.40;;
20101;SDS011;10210;52.284;9.892;2023-07-31T00:30:18;5.07;;;1.40;;
20101;SDS011;10210;52.284;9.892;2023-07-31T00:32:44;3.50;;;1.40;;
20101;SDS011;10210;52.284;9.892;2023-07-31T00:35:09;3.17;;;1.10;;
20101;SDS011;10210;52.284;9.892;2023-07-31T00:37:35;2.10;;;1.27;;
20101;SDS011;10210;52.284;9.892;2023-07-31T00:40:01;3.87;;;1.57;;
20101;SDS011;10210;52.284;9.892;2023-07-31T00:42:28;5.47;;;1.80;;
20101;SDS011;10210;52.284;9.892;2023-07-31T00:44:54;3.07;;;1.33;;
20101;SDS011;10210;52.284;9.892;2023-07-31T00:47:19;5.30;;;1.40;;
20101;SDS011;10210;52.284;9.892;2023-07-31T00:49:45;5.13;;;1.70;;
20101;SDS011;10210;52.284;9.892;2023-07-31T00:52:11;4.67;;;1.43;;
20101;SDS011;10210;52.284;9.892;2023-07-31T00:54:38;1.97;;;1.23;;
20101;SDS011;10210;52.284;9.892;2023-07-31T00:57:05;3.50;;;1.33;;
20101;SDS011;10210;52.284;9.892;2023-07-31T00:59:32;2.93;;;1.13;;
20101;SDS011;10210;52.284;9.892;2023-07-31T01:01:58;2.70;;;1.30;;
20101;SDS011;10210;52.284;9.892;2023-07-31T01:04:23;6.47;;;1.50;;
20101;SDS011;10210;52.284;9.892;2023-07-31T01:06:54;4.27;;;1.50;;
20101;SDS011;10210;52.284;9.892;2023-07-31T01:09:53;6.03;;;1.40;;
20101;SDS011;10210;52.284;9.892;2023-07-31T01:12:39;3.37;;;1.50;;
20101;SDS011;10210;52.284;9.892;2023-07-31T01:15:05;4.93;;;1.50;;
20101;SDS011;10210;52.284;9.892;2023-07-31T01:17:36;4.57;;;1.50;;
20101;SDS011;10210;52.284;9.892;2023-07-31T01:20:03;4.03;;;1.10;;
20101;SDS011;10210;52.284;9.892;2023-07-31T01:22:45;4.47;;;1.20;;
20101;SDS011;10210;52.284;9.892;2023-07-31T01:28:39;3.40;;;1.00;;
20101;SDS011;10210;52.284;9.892;2023-07-31T01:31:23;3.07;;;1.30;;
20101;SDS011;10210;52.284;9.892;2023-07-31T01:33:50;3.57;;;1.20;;
20101;SDS011;10210;52.284;9.892;2023-07-31T01:36:19;3.60;;;1.20;;
20101;SDS011;10210;52.284;9.892;2023-07-31T01:38:45;3.13;;;1.30;;
20101;SDS011;10210;52.284;9.892;2023-07-31T01:41:11;5.40;;;1.27;;
20101;SDS011;10210;52.284;9.892;2023-07-31T01:43:37;3.93;;;1.27;;
20101;SDS011;10210;52.284;9.892;2023-07-31T01:46:02;3.80;;;1.40;;
20101;SDS011;10210;52.284;9.892;2023-07-31T01:48:28;6.17;;;1.37;;
20101;SDS011;10210;52.284;9.892;2023-07-31T01:50:54;2.00;;;1.00;;
20101;SDS011;10210;52.284;9.892;2023-07-31T01:53:19;2.87;;;1.30;;
20101;SDS011;10210;52.284;9.892;2023-07-31T01:55:45;3.27;;;1.20;;
20101;SDS011;10210;52.284;9.892;2023-07-31T01:58:11;2.67;;;1.10;;
20101;SDS011;10210;52.284;9.892;2023-07-31T02:00:36;3.30;;;1.10;;
20101;SDS011;10210;52.284;9.892;2023-07-31T02:03:02;1.73;;;1.00;;
20101;SDS011;10210;52.284;9.892;2023-07-31T02:05:27;2.57;;;1.13;;
20101;SDS011;10210;52.284;9.892;2023-07-31T02:07:53;2.83;;;1.07;;
20101;SDS011;10210;52.284;9.892;2023-07-31T02:10:19;1.73;;;0.90;;
20101;SDS011;10210;52.284;9.892;2023-07-31T02:12:44;2.20;;;0.97;;
20101;SDS011;10210;52.284;9.892;2023-07-31T02:15:10;3.40;;;1.07;;
20101;SDS011;10210;52.284;9.892;2023-07-31T02:17:36;2.20;;;0.87;;
20101;SDS011;10210;52.284;9.892;2023-07-31T02:20:01;2.07;;;0.90;;
20101;SDS011;10210;52.284;9.892;2023-07-31T02:22:27;1.00;;;0.70;;
20101;SDS011;10210;52.284;9.892;2023-07-31T02:24:53;1.90;;;0.87;;
20101;SDS011;10210;52.284;9.892;2023-07-31T02:27:19;2.23;;;0.70;;
20101;SDS011;10210;52.284;9.892;2023-07-31T02:29:44;1.57;;;0.87;;
20101;SDS011;10210;52.284;9.892;2023-07-31T02:32:10;3.07;;;1.03;;
20101;SDS011;10210;52.284;9.892;2023-07-31T02:34:35;1.87;;;0.97;;
20101;SDS011;10210;52.284;9.892;2023-07-31T02:37:01;1.70;;;0.80;;
20101;SDS011;10210;52.284;9.892;2023-07-31T02:39:27;1.47;;;0.73;;
20101;SDS011;10210;52.284;9.892;2023-07-31T02:41:52;3.07;;;0.93;;
20101;SDS011;10210;52.284;9.892;2023-07-31T02:44:18;1.00;;;0.60;;
20101;SDS011;10210;52.284;9.892;2023-07-31T02:46:45;2.97;;;1.00;;
20101;SDS011;10210;52.284;9.892;2023-07-31T02:49:11;1.20;;;0.80;;
20101;SDS011;10210;52.284;9.892;2023-07-31T02:51:36;2.07;;;1.00;;
20101;SDS011;10210;52.284;9.892;2023-07-31T02:54:02;1.43;;;0.80;;
20101;SDS011;10210;52.284;9.892;2023-07-31T02:56:28;1.30;;;0.83;;
20101;SDS011;10210;52.284;9.892;2023-07-31T02:58:53;2.07;;;0.87;;
20101;SDS011;10210;52.284;9.892;2023-07-31T03:01:19;2.70;;;0.83;;
20101;SDS011;10210;52.284;9.892;2023-07-31T03:03:44;2.17;;;0.80;;
20101;SDS011;10210;52.284;9.892;2023-07-31T03:06:10;1.40;;;0.80;;
20101;SDS011;10210;52.284;9.892;2023-07-31T03:08:36;1.07;;;0.80;;
20101;SDS011;10210;52.284;9.892;2023-07-31T03:11:01;1.90;;;0.80;;
20101;SDS011;10210;52.284;9.892;2023-07-31T03:13:27;2.07;;;0.83;;
20101;SDS011;10210;52.284;9.892;2023-07-31T03:15:53;1.80;;;0.90;;
20101;SDS011;10210;52.284;9.892;2023-07-31T03:18:18;1.33;;;0.70;;
20101;SDS011;10210;52.284;9.892;2023-07-31T03:20:44;2.27;;;0.77;;
20101;SDS011;10210;52.284;9.892;2023-07-31T03:23:10;1.27;;;0.77;;
20101;SDS011;10210;52.284;9.892;2023-07-31T03:25:35;4.77;;;1.00;;
20101;SDS011;10210;52.284;9.892;2023-07-31T03:28:02;0.93;;;0.87;;
20101;SDS011;10210;52.284;9.892;2023-07-31T03:30:28;2.83;;;1.03;;
20101;SDS011;10210;52.284;9.892;2023-07-31T03:32:53;1.80;;;0.93;;
20101;SDS011;10210;52.284;9.892;2023-07-31T03:35:19;1.83;;;0.90;;
20101;SDS011;10210;52.284;9.892;2023-07-31T03:37:44;1.07;;;0.87;;
20101;SDS011;10210;52.284;9.892;2023-07-31T03:40:10;2.20;;;1.00;;
20101;SDS011;10210;52.284;9.892;2023-07-31T03:42:36;2.90;;;1.10;;
20101;SDS011;10210;52.284;9.892;2023-07-31T03:45:02;3.20;;;1.00;;
20101;SDS011;10210;52.284;9.892;2023-07-31T03:47:28;2.40;;;1.00;;
20101;SDS011;10210;52.284;9.892;2023-07-31T03:49:54;2.73;;;1.13;;
20101;SDS011;10210;52.284;9.892;2023-07-31T03:52:19;2.87;;;1.00;;
20101;SDS011;10210;52.284;9.892;2023-07-31T03:54:45;1.90;;;1.10;;
20101;SDS011;10210;52.284;9.892;2023-07-31T03:57:11;2.17;;;1.07;;
20101;SDS011;10210;52.284;9.892;2023-07-31T03:59:36;1.90;;;1.20;;
20101;SDS011;10210;52.284;9.892;2023-07-31T04:02:05;2.17;;;1.10;;
20101;SDS011;10210;52.284;9.892;2023-07-31T04:04:31;2.30;;;0.90;;
20101;SDS011;10210;52.284;9.892;2023-07-31T04:06:56;3.93;;;1.30;;
20101;SDS011;10210;52.284;9.892;2023-07-31T04:09:22;1.60;;;1.20;;
20101;SDS011;10210;52.284;9.892;2023-07-31T04:11:48;2.03;;;1.10;;
20101;SDS011;10210;52.284;9.892;2023-07-31T04:14:13;2.43;;;1.13;;
20101;SDS011;10210;52.284;9.892;2023-07-31T04:16:39;1.70;;;1.00;;
20101;SDS011;10210;52.284;9.892;2023-07-31T04:19:05;4.77;;;1.33;;
20101;SDS011;10210;52.284;9.892;2023-07-31T04:21:30;1.93;;;1.20;;
20101;SDS011;10210;52.284;9.892;2023-07-31T04:23:56;3.27;;;0.90;;
20101;SDS011;10210;52.284;9.892;2023-07-31T04:26:23;2.80;;;0.90;;
20101;SDS011;10210;52.284;9.892;2023-07-31T04:28:48;3.17;;;1.13;;
20101;SDS011;10210;52.284;9.892;2023-07-31T04:31:14;3.37;;;1.10;;
20101;SDS011;10210;52.284;9.892;2023-07-31T04:33:40;2.03;;;1.13;;
20101;SDS011;10210;52.284;9.892;2023-07-31T04:36:05;2.00;;;1.07;;
20101;SDS011;10210;52.284;9.892;2023-07-31T04:38:31;1.33;;;1.00;;
20101;SDS011;10210;52.284;9.892;2023-07-31T04:40:57;2.70;;;1.00;;
20101;SDS011;10210;52.284;9.892;2023-07-31T04:43:23;1.63;;;1.20;;
20101;SDS011;10210;52.284;9.892;2023-07-31T04:45:48;4.57;;;1.20;;
20101;SDS011;10210;52.284;9.892;2023-07-31T04:48:15;1.37;;;0.83;;
20101;SDS011;10210;52.284;9.892;2023-07-31T04:50:40;2.13;;;1.10;;
20101;SDS011;10210;52.284;9.892;2023-07-31T04:53:07;2.93;;;1.37;;
20101;SDS011;10210;52.284;9.892;2023-07-31T04:55:32;1.73;;;0.83;;
20101;SDS011;10210;52.284;9.892;2023-07-31T04:57:58;1.47;;;0.80;;
20101;SDS011;10210;52.284;9.892;2023-07-31T05:00:24;1.40;;;0.83;;
20101;SDS011;10210;52.284;9.892;2023-07-31T05:02:50;3.07;;;1.07;;
20101;SDS011;10210;52.284;9.892;2023-07-31T05:05:15;1.00;;;0.70;;
20101;SDS011;10210;52.284;9.892;2023-07-31T05:07:41;2.03;;;0.80;;
20101;SDS011;10210;52.284;9.892;2023-07-31T05:10:07;2.63;;;0.73;;
20101;SDS011;10210;52.284;9.892;2023-07-31T05:12:34;2.60;;;1.00;;
20101;SDS011;10210;52.284;9.892;2023-07-31T05:14:59;2.40;;;1.13;;
20101;SDS011;10210;52.284;9.892;2023-07-31T05:17:25;2.80;;;1.10;;
20101;SDS011;10210;52.284;9.892;2023-07-31T05:19:51;2.10;;;0.70;;
20101;SDS011;10210;52.284;9.892;2023-07-31T05:22:16;1.93;;;1.00;;
20101;SDS011;10210;52.284;9.892;2023-07-31T05:24:42;2.33;;;1.20;;
20101;SDS011;10210;52.284;9.892;2023-07-31T05:27:08;1.80;;;0.93;;
20101;SDS011;10210;52.284;9.892;2023-07-31T05:29:34;1.80;;;1.00;;
20101;SDS011;10210;52.284;9.892;2023-07-31T05:32:00;3.40;;;1.10;;
20101;SDS011;10210;52.284;9.892;2023-07-31T05:34:26;4.03;;;1.60;;
20101;SDS011;10210;52.284;9.892;2023-07-31T05:36:52;4.90;;;2.10;;
20101;SDS011;10210;52.284;9.892;2023-07-31T05:39:18;4.40;;;2.20;;
20101;SDS011;10210;52.284;9.892;2023-07-31T05:41:44;7.30;;;2.73;;
20101;SDS011;10210;52.284;9.892;2023-07-31T05:44:10;8.10;;;3.33;;
20101;SDS011;10210;52.284;9.892;2023-07-31T05:46:36;9.53;;;3.50;;
20101;SDS011;10210;52.284;9.892;2023-07-31T05:49:02;9.93;;;3.90;;
20101;SDS011;10210;52.284;9.892;2023-07-31T05:51:27;11.13;;;4.37;;
20101;SDS011;10210;52.284;9.892;2023-07-31T05:53:53;14.80;;;4.63;;
20101;SDS011;10210;52.284;9.892;2023-07-31T05:56:19;12.07;;;4.70;;
20101;SDS011;10210;52.284;9.892;2023-07-31T05:58:46;11.17;;;4.73;;
20101;SDS011;10210;52.284;9.892;2023-07-31T06:01:14;11.40;;;5.03;;
20101;SDS011;10210;52.284;9.892;2023-07-31T06:03:42;12.40;;;5.23;;
20101;SDS011;10210;52.284;9.892;2023-07-31T06:06:07;12.00;;;4.83;;
20101;SDS011;10210;52.284;9.892;2023-07-31T06:08:33;13.07;;;5.43;;
20101;SDS011;10210;52.284;9.892;2023-07-31T06:10:59;11.73;;;5.10;;
20101;SDS011;10210;52.284;9.892;2023-07-31T06:13:25;11.00;;;4.87;;
20101;SDS011;10210;52.284;9.892;2023-07-31T06:15:50;11.77;;;5.20;;
20101;SDS011;10210;52.284;9.892;2023-07-31T06:18:16;11.23;;;4.70;;
20101;SDS011;10210;52.284;9.892;2023-07-31T06:20:41;11.87;;;4.70;;
20101;SDS011;10210;52.284;9.892;2023-07-31T06:23:07;12.53;;;4.70;;
20101;SDS011;10210;52.284;9.892;2023-07-31T06:25:33;11.33;;;4.30;;
20101;SDS011;10210;52.284;9.892;2023-07-31T06:27:59;11.30;;;4.57;;
20101;SDS011;10210;52.284;9.892;2023-07-31T06:30:24;12.10;;;4.70;;
20101;SDS011;10210;52.284;9.892;2023-07-31T06:32:50;10.63;;;4.37;;
20101;SDS011;10210;52.284;9.892;2023-07-31T06:35:15;10.80;;;4.70;;
20101;SDS011;10210;52.284;9.892;2023-07-31T06:37:41;11.83;;;4.53;;
20101;SDS011;10210;52.284;9.892;2023-07-31T06:40:09;15.03;;;5.90;;
20101;SDS011;10210;52.284;9.892;2023-07-31T06:42:35;12.00;;;4.70;;
20101;SDS011;10210;52.284;9.892;2023-07-31T06:45:02;12.13;;;5.57;;
20101;SDS011;10210;52.284;9.892;2023-07-31T06:47:28;12.17;;;5.40;;
20101;SDS011;10210;52.284;9.892;2023-07-31T06:49:53;14.20;;;5.60;;
20101;SDS011;10210;52.284;9.892;2023-07-31T06:52:19;14.37;;;6.03;;
20101;SDS011;10210;52.284;9.892;2023-07-31T06:54:59;14.13;;;5.67;;
20101;SDS011;10210;52.284;9.892;2023-07-31T06:57:44;15.43;;;6.07;;
20101;SDS011;10210;52.284;9.892;2023-07-31T07:00:10;17.33;;;6.83;;
20101;SDS011;10210;52.284;9.892;2023-07-31T07:02:36;14.23;;;6.60;;
20101;SDS011;10210;52.284;9.892;2023-07-31T07:05:02;16.07;;;6.97;;
20101;SDS011;10210;52.284;9.892;2023-07-31T07:07:28;15.03;;;7.37;;
20101;SDS011;10210;52.284;9.892;2023-07-31T07:09:54;17.77;;;8.03;;
20101;SDS011;10210;52.284;9.892;2023-07-31T07:12:19;15.23;;;7.10;;
20101;SDS011;10210;52.284;9.892;2023-07-31T07:14:45;14.23;;;7.27;;
20101;SDS011;10210;52.284;9.892;2023-07-31T07:17:12;16.37;;;7.97;;
20101;SDS011;10210;52.284;9.892;2023-07-31T07:19:42;15.43;;;7.33;;
20101;SDS011;10210;52.284;9.892;2023-07-31T07:22:08;15.67;;;8.40;;
20101;SDS011;10210;52.284;9.892;2023-07-31T07:24:35;15.97;;;7.57;;
20101;SDS011;10210;52.284;9.892;2023-07-31T07:27:00;17.80;;;8.27;;
20101;SDS011;10210;52.284;9.892;2023-07-31T07:29:26;15.77;;;8.13;;
20101;SDS011;10210;52.284;9.892;2023-07-31T07:31:51;15.90;;;8.10;;
20101;SDS011;10210;52.284;9.892;2023-07-31T07:34:17;16.10;;;7.87;;
20101;SDS011;10210;52.284;9.892;2023-07-31T07:36:43;15.87;;;7.43;;
20101;SDS011;10210;52.284;9.892;2023-07-31T07:39:10;16.17;;;7.47;;
20101;SDS011;10210;52.284;9.892;2023-07-31T07:41:36;16.90;;;7.40;;
20101;SDS011;10210;52.284;9.892;2023-07-31T07:44:02;15.97;;;7.43;;
20101;SDS011;10210;52.284;9.892;2023-07-31T07:46:27;16.10;;;7.53;;
20101;SDS011;10210;52.284;9.892;2023-07-31T07:48:53;16.00;;;7.13;;
20101;SDS011;10210;52.284;9.892;2023-07-31T07:51:19;13.70;;;7.10;;
20101;SDS011;10210;52.284;9.892;2023-07-31T07:53:44;16.47;;;7.27;;
20101;SDS011;10210;52.284;9.892;2023-07-31T07:56:10;18.20;;;6.93;;
20101;SDS011;10210;52.284;9.892;2023-07-31T07:58:35;14.97;;;6.83;;
20101;SDS011;10210;52.284;9.892;2023-07-31T08:01:01;14.47;;;6.77;;
20101;SDS011;10210;52.284;9.892;2023-07-31T08:03:27;16.07;;;6.97;;
20101;SDS011;10210;52.284;9.892;2023-07-31T08:05:52;17.47;;;6.70;;
20101;SDS011;10210;52.284;9.892;2023-07-31T08:08:24;15.63;;;6.23;;
20101;SDS011;10210;52.284;9.892;2023-07-31T08:10:49;13.80;;;5.80;;
20101;SDS011;10210;52.284;9.892;2023-07-31T08:13:15;13.77;;;5.93;;
20101;SDS011;10210;52.284;9.892;2023-07-31T08:15:41;14.00;;;5.90;;
20101;SDS011;10210;52.284;9.892;2023-07-31T08:18:07;15.50;;;5.80;;
20101;SDS011;10210;52.284;9.892;2023-07-31T08:20:34;15.83;;;6.03;;
20101;SDS011;10210;52.284;9.892;2023-07-31T08:23:00;14.47;;;5.77;;
20101;SDS011;10210;52.284;9.892;2023-07-31T08:25:25;14.10;;;5.17;;
20101;SDS011;10210;52.284;9.892;2023-07-31T08:27:51;13.90;;;5.70;;
20101;SDS011;10210;52.284;9.892;2023-07-31T08:30:18;14.60;;;5.30;;
20101;SDS011;10210;52.284;9.892;2023-07-31T08:32:44;14.73;;;5.63;;
20101;SDS011;10210;52.284;9.892;2023-07-31T08:35:10;13.67;;;5.40;;
20101;SDS011;10210;52.284;9.892;2023-07-31T08:37:36;14.30;;;5.13;;
20101;SDS011;10210;52.284;9.892;2023-07-31T08:40:03;13.73;;;5.30;;
20101;SDS011;10210;52.284;9.892;2023-07-31T08:42:30;12.20;;;5.10;;
20101;SDS011;10210;52.284;9.892;2023-07-31T08:44:57;13.93;;;5.43;;
20101;SDS011;10210;52.284;9.892;2023-07-31T08:47:25;14.13;;;5.63;;
20101;SDS011;10210;52.284;9.892;2023-07-31T08:49:52;13.73;;;5.43;;
20101;SDS011;10210;52.284;9.892;2023-07-31T08:52:19;15.47;;;5.17;;
20101;SDS011;10210;52.284;9.892;2023-07-31T08:54:45;13.70;;;5.50;;
20101;SDS011;10210;52.284;9.892;2023-07-31T08:57:11;12.60;;;5.03;;
20101;SDS011;10210;52.284;9.892;2023-07-31T08:59:39;14.80;;;5.50;;
20101;SDS011;10210;52.284;9.892;2023-07-31T09:02:07;13.50;;;4.90;;
20101;SDS011;10210;52.284;9.892;2023-07-31T09:04:33;16.50;;;5.23;;
20101;SDS011;10210;52.284;9.892;2023-07-31T09:07:00;12.40;;;4.93;;
20101;SDS011;10210;52.284;9.892;2023-07-31T09:09:29;14.20;;;5.30;;
20101;SDS011;10210;52.284;9.892;2023-07-31T09:11:57;12.83;;;4.63;;
20101;SDS011;10210;52.284;9.892;2023-07-31T09:14:24;12.50;;;4.73;;
20101;SDS011;10210;52.284;9.892;2023-07-31T09:16:54;11.70;;;4.20;;
20101;SDS011;10210;52.284;9.892;2023-07-31T09:19:39;11.43;;;4.77;;
20101;SDS011;10210;52.284;9.892;2023-07-31T09:22:05;10.17;;;3.67;;
20101;SDS011;10210;52.284;9.892;2023-07-31T09:24:32;12.10;;;4.43;;
20101;SDS011;10210;52.284;9.892;2023-07-31T09:26:59;9.27;;;3.77;;
20101;SDS011;10210;52.284;9.892;2023-07-31T09:29:27;10.63;;;3.73;;
20101;SDS011;10210;52.284;9.892;2023-07-31T09:31:54;9.70;;;3.57;;
20101;SDS011;10210;52.284;9.892;2023-07-31T09:34:28;9.40;;;2.90;;
20101;SDS011;10210;52.284;9.892;2023-07-31T09:37:01;8.33;;;3.03;;
20101;SDS011;10210;52.284;9.892;2023-07-31T09:39:27;8.43;;;3.17;;
20101;SDS011;10210;52.284;9.892;2023-07-31T09:41:55;7.53;;;2.90;;
20101;SDS011;10210;52.284;9.892;2023-07-31T09:44:21;9.43;;;3.10;;
20101;SDS011;10210;52.284;9.892;2023-07-31T09:47:05;8.07;;;2.97;;
20101;SDS011;10210;52.284;9.892;2023-07-31T09:49:31;7.47;;;2.80;;
20101;SDS011;10210;52.284;9.892;2023-07-31T09:51:56;7.13;;;2.73;;
20101;SDS011;10210;52.284;9.892;2023-07-31T09:54:22;6.90;;;2.57;;
20101;SDS011;10210;52.284;9.892;2023-07-31T09:56:48;6.03;;;2.40;;
20101;SDS011;10210;52.284;9.892;2023-07-31T09:59:15;6.33;;;2.30;;
20101;SDS011;10210;52.284;9.892;2023-07-31T10:01:44;6.53;;;2.30;;
20101;SDS011;10210;52.284;9.892;2023-07-31T10:04:12;5.87;;;2.50;;
20101;SDS011;10210;52.284;9.892;2023-07-31T10:06:42;7.00;;;2.50;;
20101;SDS011;10210;52.284;9.892;2023-07-31T10:09:11;6.10;;;2.47;;
20101;SDS011;10210;52.284;9.892;2023-07-31T10:11:41;5.17;;;2.23;;
20101;SDS011;10210;52.284;9.892;2023-07-31T10:14:16;8.80;;;2.40;;
20101;SDS011;10210;52.284;9.892;2023-07-31T10:16:45;6.43;;;2.60;;
20101;SDS011;10210;52.284;9.892;2023-07-31T10:19:12;7.17;;;2.70;;
20101;SDS011;10210;52.284;9.892;2023-07-31T10:21:37;8.37;;;3.20;;
20101;SDS011;10210;52.284;9.892;2023-07-31T10:24:04;7.53;;;2.77;;
20101;SDS011;10210;52.284;9.892;2023-07-31T10:26:33;7.13;;;2.83;;
20101;SDS011;10210;52.284;9.892;2023-07-31T10:29:00;8.30;;;3.03;;
20101;SDS011;10210;52.284;9.892;2023-07-31T10:31:27;8.87;;;3.07;;
20101;SDS011;10210;52.284;9.892;2023-07-31T10:33:54;7.60;;;3.10;;
20101;SDS011;10210;52.284;9.892;2023-07-31T10:36:24;8.57;;;3.20;;
20101;SDS011;10210;52.284;9.892;2023-07-31T10:38:50;8.83;;;3.00;;
20101;SDS011;10210;52.284;9.892;2023-07-31T10:41:16;7.57;;;3.00;;
20101;SDS011;10210;52.284;9.892;2023-07-31T10:43:42;7.83;;;3.03;;
20101;SDS011;10210;52.284;9.892;2023-07-31T10:46:11;6.07;;;2.60;;
20101;SDS011;10210;52.284;9.892;2023-07-31T10:48:40;7.57;;;2.67;;
20101;SDS011;10210;52.284;9.892;2023-07-31T10:51:12;8.13;;;2.90;;
20101;SDS011;10210;52.284;9.892;2023-07-31T10:53:38;8.93;;;2.90;;
20101;SDS011;10210;52.284;9.892;2023-07-31T10:56:06;7.77;;;2.63;;
20101;SDS011;10210;52.284;9.892;2023-07-31T10:58:40;6.70;;;2.70;;
20101;SDS011;10210;52.284;9.892;2023-07-31T11:01:11;5.80;;;2.60;;
20101;SDS011;10210;52.284;9.892;2023-07-31T11:03:49;7.00;;;2.80;;
20101;SDS011;10210;52.284;9.892;2023-07-31T11:06:17;7.50;;;2.83;;
20101;SDS011;10210;52.284;9.892;2023-07-31T11:08:47;6.70;;;2.93;;
20101;SDS011;10210;52.284;9.892;2023-07-31T11:11:15;7.70;;;2.73;;
20101;SDS011;10210;52.284;9.892;2023-07-31T11:16:20;8.07;;;2.70;;
20101;SDS011;10210;52.284;9.892;2023-07-31T11:18:49;8.33;;;2.80;;
20101;SDS011;10210;52.284;9.892;2023-07-31T11:21:17;7.50;;;2.80;;
20101;SDS011;10210;52.284;9.892;2023-07-31T11:23:48;6.27;;;2.67;;
20101;SDS011;10210;52.284;9.892;2023-07-31T11:26:17;8.43;;;3.10;;
20101;SDS011;10210;52.284;9.892;2023-07-31T11:28:47;7.93;;;2.77;;
20101;SDS011;10210;52.284;9.892;2023-07-31T11:31:14;8.10;;;2.80;;
20101;SDS011;10210;52.284;9.892;2023-07-31T11:33:41;7.77;;;3.13;;
20101;SDS011;10210;52.284;9.892;2023-07-31T11:36:06;7.20;;;2.90;;
20101;SDS011;10210;52.284;9.892;2023-07-31T11:38:44;7.33;;;2.80;;
20101;SDS011;10210;52.284;9.892;2023-07-31T11:41:13;8.10;;;2.87;;
20101;SDS011;10210;52.284;9.892;2023-07-31T11:43:41;6.27;;;2.50;;
20101;SDS011;10210;52.284;9.892;2023-07-31T11:46:07;5.67;;;2.20;;
20101;SDS011;10210;52.284;9.892;2023-07-31T11:48:33;8.63;;;2.40;;
20101;SDS011;10210;52.284;9.892;2023-07-31T11:51:02;6.17;;;2.43;;
20101;SDS011;10210;52.284;9.892;2023-07-31T11:56:18;5.83;;;2.30;;
20101;SDS011;10210;52.284;9.892;2023-07-31T11:58:46;6.37;;;2.40;;
20101;SDS011;10210;52.284;9.892;2023-07-31T12:01:22;4.80;;;2.10;;
20101;SDS011;10210;52.284;9.892;2023-07-31T12:03:49;5.97;;;2.30;;
20101;SDS011;10210;52.284;9.892;2023-07-31T12:06:15;6.43;;;2.63;;
20101;SDS011;10210;52.284;9.892;2023-07-31T12:08:41;5.97;;;2.50;;
20101;SDS011;10210;52.284;9.892;2023-07-31T12:11:08;7.27;;;2.33;;
20101;SDS011;10210;52.284;9.892;2023-07-31T12:13:34;4.80;;;2.10;;
20101;SDS011;10210;52.284;9.892;2023-07-31T12:16:01;5.53;;;2.27;;
20101;SDS011;10210;52.284;9.892;2023-07-31T12:18:29;5.80;;;2.10;;
20101;SDS011;10210;52.284;9.892;2023-07-31T12:21:01;4.87;;;2.10;;
20101;SDS011;10210;52.284;9.892;2023-07-31T12:23:31;5.70;;;2.20;;
20101;SDS011;10210;52.284;9.892;2023-07-31T12:28:43;5.87;;;2.07;;
20101;SDS011;10210;52.284;9.892;2023-07-31T12:31:18;5.87;;;2.10;;
20101;SDS011;10210;52.284;9.892;2023-07-31T12:33:47;8.53;;;2.47;;
20101;SDS011;10210;52.284;9.892;2023-07-31T12:36:16;5.33;;;2.00;;
20101;SDS011;10210;52.284;9.892;2023-07-31T12:38:44;5.43;;;2.03;;
20101;SDS011;10210;52.284;9.892;2023-07-31T12:41:11;4.67;;;1.93;;
20101;SDS011;10210;52.284;9.892;2023-07-31T12:43:38;5.47;;;2.00;;
20101;SDS011;10210;52.284;9.892;2023-07-31T12:46:06;5.63;;;2.00;;
20101;SDS011;10210;52.284;9.892;2023-07-31T12:48:34;4.37;;;2.03;;
20101;SDS011;10210;52.284;9.892;2023-07-31T12:51:00;4.17;;;1.70;;
20101;SDS011;10210;52.284;9.892;2023-07-31T12:53:27;3.77;;;1.80;;
20101;SDS011;10210;52.284;9.892;2023-07-31T12:55:54;4.00;;;1.90;;
20101;SDS011;10210;52.284;9.892;2023-07-31T12:58:20;3.50;;;1.60;;
20101;SDS011;10210;52.284;9.892;2023-07-31T13:00:46;4.30;;;1.87;;
20101;SDS011;10210;52.284;9.892;2023-07-31T13:03:12;5.30;;;1.90;;
20101;SDS011;10210;52.284;9.892;2023-07-31T13:05:37;4.10;;;1.70;;
20101;SDS011;10210;52.284;9.892;2023-07-31T13:08:03;4.40;;;1.60;;
20101;SDS011;10210;52.284;9.892;2023-07-31T13:10:29;3.20;;;1.40;;
20101;SDS011;10210;52.284;9.892;2023-07-31T13:12:55;4.07;;;1.50;;
20101;SDS011;10210;52.284;9.892;2023-07-31T13:15:21;3.23;;;1.57;;
20101;SDS011;10210;52.284;9.892;2023-07-31T13:17:48;2.87;;;1.40;;
20101;SDS011;10210;52.284;9.892;2023-07-31T13:20:15;4.00;;;1.50;;
20101;SDS011;10210;52.284;9.892;2023-07-31T13:22:41;1.97;;;1.30;;
20101;SDS011;10210;52.284;9.892;2023-07-31T13:25:07;2.67;;;1.20;;
20101;SDS011;10210;52.284;9.892;2023-07-31T13:27:33;2.33;;;1.47;;
20101;SDS011;10210;52.284;9.892;2023-07-31T13:30:00;4.77;;;1.43;;
20101;SDS011;10210;52.284;9.892;2023-07-31T13:32:26;1.87;;;1.10;;
20101;SDS011;10210;52.284;9.892;2023-07-31T13:34:52;2.20;;;1.07;;
20101;SDS011;10210;52.284;9.892;2023-07-31T13:37:17;1.63;;;0.90;;
20101;SDS011;10210;52.284;9.892;2023-07-31T13:39:43;2.33;;;0.93;;
20101;SDS011;10210;52.284;9.892;2023-07-31T13:42:09;2.87;;;1.00;;
20101;SDS011;10210;52.284;9.892;2023-07-31T13:44:39;0.90;;;0.80;;
20101;SDS011;10210;52.284;9.892;2023-07-31T13:47:07;3.70;;;0.90;;
20101;SDS011;10210;52.284;9.892;2023-07-31T13:49:35;2.33;;;0.90;;
20101;SDS011;10210;52.284;9.892;2023-07-31T13:52:02;1.73;;;0.93;;
20101;SDS011;10210;52.284;9.892;2023-07-31T13:54:28;1.07;;;0.70;;
20101;SDS011;10210;52.284;9.892;2023-07-31T13:56:54;2.47;;;0.90;;
20101;SDS011;10210;52.284;9.892;2023-07-31T13:59:20;1.10;;;0.60;;
20101;SDS011;10210;52.284;9.892;2023-07-31T14:01:47;1.20;;;0.80;;
20101;SDS011;10210;52.284;9.892;2023-07-31T14:04:15;1.23;;;0.77;;
20101;SDS011;10210;52.284;9.892;2023-07-31T14:06:41;0.90;;;0.70;;
20101;SDS011;10210;52.284;9.892;2023-07-31T14:09:06;1.77;;;0.80;;
20101;SDS011;10210;52.284;9.892;2023-07-31T14:11:32;1.80;;;0.90;;
20101;SDS011;10210;52.284;9.892;2023-07-31T14:13:59;2.27;;;0.90;;
20101;SDS011;10210;52.284;9.892;2023-07-31T14:16:27;2.00;;;1.13;;
20101;SDS011;10210;52.284;9.892;2023-07-31T14:18:53;1.60;;;1.03;;
20101;SDS011;10210;52.284;9.892;2023-07-31T14:21:19;2.73;;;1.10;;
20101;SDS011;10210;52.284;9.892;2023-07-31T14:23:46;1.60;;;1.00;;
20101;SDS011;10210;52.284;9.892;2023-07-31T14:26:12;2.97;;;1.10;;
20101;SDS011;10210;52.284;9.892;2023-07-31T14:28:37;2.83;;;1.23;;
20101;SDS011;10210;52.284;9.892;2023-07-31T14:31:03;1.90;;;1.10;;
20101;SDS011;10210;52.284;9.892;2023-07-31T14:33:29;2.60;;;1.13;;
20101;SDS011;10210;52.284;9.892;2023-07-31T14:35:55;2.53;;;1.30;;
20101;SDS011;10210;52.284;9.892;2023-07-31T14:38:23;4.10;;;1.63;;
20101;SDS011;10210;52.284;9.892;2023-07-31T14:40:49;4.37;;;1.60;;
20101;SDS011;10210;52.284;9.892;2023-07-31T14:43:16;4.77;;;2.17;;
20101;SDS011;10210;52.284;9.892;2023-07-31T14:45:42;5.37;;;1.90;;
20101;SDS011;10210;52.284;9.892;2023-07-31T14:48:07;5.03;;;2.00;;
20101;SDS011;10210;52.284;9.892;2023-07-31T14:50:33;4.80;;;2.03;;
20101;SDS011;10210;52.284;9.892;2023-07-31T14:52:59;5.30;;;2.00;;
20101;SDS011;10210;52.284;9.892;2023-07-31T14:55:25;2.70;;;1.70;;